sensor_id;sensor_type;location;lat;lon;timestamp;temperature;humidity
53294;DHT22;39181;53.440;5.644;2022-07-21T00:00:23;21.20;99.90
53294;DHT22;39181;53.440;5.644;2022-07-21T00:02:50;21.20;99.90
53294;DHT22;39181;53.440;5.644;2022-07-21T00:05:15;21.20;99.90
53294;DHT22;39181;53.440;5.644;2022-07-21T00:07:41;21.20;99.90
53294;DHT22;39181;53.440;5.644;2022-07-21T00:10:08;21.20;99.90
53294;DHT22;39181;53.440;5.644;2022-07-21T00:12:34;21.20;99.90
53294;DHT22;39181;53.440;5.644;2022-07-21T00:14:59;21.20;99.90
53294;DHT22;39181;53.440;5.644;2022-07-21T00:17:25;21.20;99.90
53294;DHT22;39181;53.440;5.644;2022-07-21T00:19:51;21.20;99.90
53294;DHT22;39181;53.440;5.644;2022-07-21T00:22:16;21.20;99.90
53294;DHT22;39181;53.440;5.644;2022-07-21T00:24:42;21.20;99.90
53294;DHT22;39181;53.440;5.644;2022-07-21T00:27:08;21.20;99.90
53294;DHT22;39181;53.440;5.644;2022-07-21T00:29:33;21.20;99.90
53294;DHT22;39181;53.440;5.644;2022-07-21T00:31:59;21.20;99.90
53294;DHT22;39181;53.440;5.644;2022-07-21T00:34:25;21.20;99.90
53294;DHT22;39181;53.440;5.644;2022-07-21T00:36:51;21.30;99.90
53294;DHT22;39181;53.440;5.644;2022-07-21T00:39:17;21.20;99.90
53294;DHT22;39181;53.440;5.644;2022-07-21T00:41:42;21.30;99.90
53294;DHT22;39181;53.440;5.644;2022-07-21T00:44:22;21.30;99.90
53294;DHT22;39181;53.440;5.644;2022-07-21T00:46:48;21.30;99.90
53294;DHT22;39181;53.440;5.644;2022-07-21T00:49:14;21.30;99.90
53294;DHT22;39181;53.440;5.644;2022-07-21T00:51:40;21.30;99.90
53294;DHT22;39181;53.440;5.644;2022-07-21T00:54:06;21.20;99.90
53294;DHT22;39181;53.440;5.644;2022-07-21T00:56:31;21.20;99.90
53294;DHT22;39181;53.440;5.644;2022-07-21T00:58:57;21.20;99.90
53294;DHT22;39181;53.440;5.644;2022-07-21T01:01:23;21.10;99.90
53294;DHT22;39181;53.440;5.644;2022-07-21T01:03:48;21.20;99.90
53294;DHT22;39181;53.440;5.644;2022-07-21T01:06:14;21.00;99.90
53294;DHT22;39181;53.440;5.644;2022-07-21T01:08:40;21.00;99.90
53294;DHT22;39181;53.440;5.644;2022-07-21T01:11:05;21.00;99.90
53294;DHT22;39181;53.440;5.644;2022-07-21T01:13:31;20.90;99.90
53294;DHT22;39181;53.440;5.644;2022-07-21T01:15:57;20.90;99.90
53294;DHT22;39181;53.440;5.644;2022-07-21T01:18:23;20.90;99.90
53294;DHT22;39181;53.440;5.644;2022-07-21T01:20:53;20.90;99.90
53294;DHT22;39181;53.440;5.644;2022-07-21T01:23:20;20.90;99.90
53294;DHT22;39181;53.440;5.644;2022-07-21T01:25:50;21.00;99.90
53294;DHT22;39181;53.440;5.644;2022-07-21T01:28:16;20.80;99.90
53294;DHT22;39181;53.440;5.644;2022-07-21T01:30:42;20.70;99.90
53294;DHT22;39181;53.440;5.644;2022-07-21T01:33:08;20.70;99.90
53294;DHT22;39181;53.440;5.644;2022-07-21T01:35:34;20.60;99.90
53294;DHT22;39181;53.440;5.644;2022-07-21T01:38:00;20.70;99.90
53294;DHT22;39181;53.440;5.644;2022-07-21T01:40:25;20.70;99.90
53294;DHT22;39181;53.440;5.644;2022-07-21T01:43:10;20.70;99.90
53294;DHT22;39181;53.440;5.644;2022-07-21T01:45:35;20.60;99.90
53294;DHT22;39181;53.440;5.644;2022-07-21T01:48:01;20.60;99.90
53294;DHT22;39181;53.440;5.644;2022-07-21T01:50:27;20.60;99.90
53294;DHT22;39181;53.440;5.644;2022-07-21T01:52:55;20.60;99.90
53294;DHT22;39181;53.440;5.644;2022-07-21T01:55:22;20.60;99.90
53294;DHT22;39181;53.440;5.644;2022-07-21T01:57:47;20.50;99.90
53294;DHT22;39181;53.440;5.644;2022-07-21T02:00:13;20.50;99.90
53294;DHT22;39181;53.440;5.644;2022-07-21T02:02:38;20.50;99.90
53294;DHT22;39181;53.440;5.644;2022-07-21T02:05:05;20.50;99.90
53294;DHT22;39181;53.440;5.644;2022-07-21T02:07:30;20.50;99.90
53294;DHT22;39181;53.440;5.644;2022-07-21T02:09:56;20.50;99.90
53294;DHT22;39181;53.440;5.644;2022-07-21T02:12:22;20.50;99.90
53294;DHT22;39181;53.440;5.644;2022-07-21T02:14:47;20.50;99.90
53294;DHT22;39181;53.440;5.644;2022-07-21T02:17:13;20.50;99.90
53294;DHT22;39181;53.440;5.644;2022-07-21T02:19:38;20.50;99.90
53294;DHT22;39181;53.440;5.644;2022-07-21T02:22:04;20.50;99.90
53294;DHT22;39181;53.440;5.644;2022-07-21T02:24:29;20.50;99.90
53294;DHT22;39181;53.440;5.644;2022-07-21T02:26:55;20.40;99.90
53294;DHT22;39181;53.440;5.644;2022-07-21T02:29:20;20.40;99.90
53294;DHT22;39181;53.440;5.644;2022-07-21T02:31:46;20.40;99.90
53294;DHT22;39181;53.440;5.644;2022-07-21T02:34:11;20.40;99.90
53294;DHT22;39181;53.440;5.644;2022-07-21T02:36:37;20.30;99.90
53294;DHT22;39181;53.440;5.644;2022-07-21T02:39:03;20.40;99.90
53294;DHT22;39181;53.440;5.644;2022-07-21T02:41:29;20.40;99.90
53294;DHT22;39181;53.440;5.644;2022-07-21T02:43:54;20.30;99.90
53294;DHT22;39181;53.440;5.644;2022-07-21T02:46:20;20.30;99.90
53294;DHT22;39181;53.440;5.644;2022-07-21T02:48:46;20.30;99.90
53294;DHT22;39181;53.440;5.644;2022-07-21T02:51:11;20.30;99.90
53294;DHT22;39181;53.440;5.644;2022-07-21T02:53:37;20.30;99.90
53294;DHT22;39181;53.440;5.644;2022-07-21T02:56:02;20.20;99.90
53294;DHT22;39181;53.440;5.644;2022-07-21T02:58:29;20.20;99.90
53294;DHT22;39181;53.440;5.644;2022-07-21T03:00:57;20.20;99.90
53294;DHT22;39181;53.440;5.644;2022-07-21T03:03:25;20.20;99.90
53294;DHT22;39181;53.440;5.644;2022-07-21T03:05:52;20.20;99.90
53294;DHT22;39181;53.440;5.644;2022-07-21T03:08:18;20.20;99.90
53294;DHT22;39181;53.440;5.644;2022-07-21T03:10:44;20.20;99.90
53294;DHT22;39181;53.440;5.644;2022-07-21T03:13:10;20.10;99.90
53294;DHT22;39181;53.440;5.644;2022-07-21T03:15:36;20.10;99.90
53294;DHT22;39181;53.440;5.644;2022-07-21T03:18:02;20.10;99.90
53294;DHT22;39181;53.440;5.644;2022-07-21T03:20:31;20.00;99.90
53294;DHT22;39181;53.440;5.644;2022-07-21T03:22:57;20.00;99.90
53294;DHT22;39181;53.440;5.644;2022-07-21T03:25:22;20.10;99.90
53294;DHT22;39181;53.440;5.644;2022-07-21T03:27:48;20.10;99.90
53294;DHT22;39181;53.440;5.644;2022-07-21T03:30:14;20.00;99.90
53294;DHT22;39181;53.440;5.644;2022-07-21T03:32:41;20.00;99.90
53294;DHT22;39181;53.440;5.644;2022-07-21T03:35:08;20.00;99.90
53294;DHT22;39181;53.440;5.644;2022-07-21T03:37:46;20.00;99.90
53294;DHT22;39181;53.440;5.644;2022-07-21T03:40:15;20.00;99.90
53294;DHT22;39181;53.440;5.644;2022-07-21T03:42:41;20.00;99.90
53294;DHT22;39181;53.440;5.644;2022-07-21T03:45:08;20.00;99.90
53294;DHT22;39181;53.440;5.644;2022-07-21T03:47:34;20.00;99.90
53294;DHT22;39181;53.440;5.644;2022-07-21T03:50:00;20.00;99.90
53294;DHT22;39181;53.440;5.644;2022-07-21T03:52:26;20.00;99.90
53294;DHT22;39181;53.440;5.644;2022-07-21T03:54:51;20.00;99.90
53294;DHT22;39181;53.440;5.644;2022-07-21T03:57:35;19.90;99.90
53294;DHT22;39181;53.440;5.644;2022-07-21T04:00:00;19.80;99.90
53294;DHT22;39181;53.440;5.644;2022-07-21T04:02:26;19.70;99.90
53294;DHT22;39181;53.440;5.644;2022-07-21T04:04:51;19.70;99.90
53294;DHT22;39181;53.440;5.644;2022-07-21T04:07:17;19.70;99.90
53294;DHT22;39181;53.440;5.644;2022-07-21T04:09:43;19.60;99.90
53294;DHT22;39181;53.440;5.644;2022-07-21T04:12:08;19.60;99.90
53294;DHT22;39181;53.440;5.644;2022-07-21T04:14:34;19.50;99.90
53294;DHT22;39181;53.440;5.644;2022-07-21T04:16:59;19.50;99.90
53294;DHT22;39181;53.440;5.644;2022-07-21T04:19:25;19.50;99.90
53294;DHT22;39181;53.440;5.644;2022-07-21T04:21:50;19.40;99.90
53294;DHT22;39181;53.440;5.644;2022-07-21T04:24:16;19.50;99.90
53294;DHT22;39181;53.440;5.644;2022-07-21T04:26:41;19.40;99.90
53294;DHT22;39181;53.440;5.644;2022-07-21T04:29:07;19.40;99.90
53294;DHT22;39181;53.440;5.644;2022-07-21T04:31:33;19.40;99.90
53294;DHT22;39181;53.440;5.644;2022-07-21T04:33:58;19.40;99.90
53294;DHT22;39181;53.440;5.644;2022-07-21T04:36:24;19.40;99.90
53294;DHT22;39181;53.440;5.644;2022-07-21T04:38:49;19.40;99.90
53294;DHT22;39181;53.440;5.644;2022-07-21T04:41:15;19.40;99.90
53294;DHT22;39181;53.440;5.644;2022-07-21T04:43:40;19.40;99.90
53294;DHT22;39181;53.440;5.644;2022-07-21T04:46:06;19.40;99.90
53294;DHT22;39181;53.440;5.644;2022-07-21T04:48:32;19.40;99.90
53294;DHT22;39181;53.440;5.644;2022-07-21T04:50:58;19.50;99.90
53294;DHT22;39181;53.440;5.644;2022-07-21T04:53:24;19.50;99.90
53294;DHT22;39181;53.440;5.644;2022-07-21T04:55:49;19.50;99.90
53294;DHT22;39181;53.440;5.644;2022-07-21T04:58:15;19.50;99.90
53294;DHT22;39181;53.440;5.644;2022-07-21T05:00:41;19.50;99.90
53294;DHT22;39181;53.440;5.644;2022-07-21T05:03:06;19.50;99.90
53294;DHT22;39181;53.440;5.644;2022-07-21T05:05:32;19.50;99.90
53294;DHT22;39181;53.440;5.644;2022-07-21T05:07:57;19.50;99.90
53294;DHT22;39181;53.440;5.644;2022-07-21T05:10:24;19.50;99.90
53294;DHT22;39181;53.440;5.644;2022-07-21T05:12:49;19.50;99.90
53294;DHT22;39181;53.440;5.644;2022-07-21T05:15:15;19.50;99.90
53294;DHT22;39181;53.440;5.644;2022-07-21T05:17:41;19.50;99.90
53294;DHT22;39181;53.440;5.644;2022-07-21T05:20:08;19.60;99.90
53294;DHT22;39181;53.440;5.644;2022-07-21T05:22:34;19.60;99.90
53294;DHT22;39181;53.440;5.644;2022-07-21T05:24:59;19.60;99.90
53294;DHT22;39181;53.440;5.644;2022-07-21T05:27:25;19.70;99.90
53294;DHT22;39181;53.440;5.644;2022-07-21T05:29:50;19.70;99.90
53294;DHT22;39181;53.440;5.644;2022-07-21T05:32:16;19.70;99.90
53294;DHT22;39181;53.440;5.644;2022-07-21T05:34:42;19.70;99.90
53294;DHT22;39181;53.440;5.644;2022-07-21T05:37:08;19.70;99.90
53294;DHT22;39181;53.440;5.644;2022-07-21T05:39:33;19.70;99.90
53294;DHT22;39181;53.440;5.644;2022-07-21T05:41:59;19.70;99.90
53294;DHT22;39181;53.440;5.644;2022-07-21T05:44:24;19.70;99.90
53294;DHT22;39181;53.440;5.644;2022-07-21T05:46:50;19.70;99.90
53294;DHT22;39181;53.440;5.644;2022-07-21T05:49:15;19.80;99.90
53294;DHT22;39181;53.440;5.644;2022-07-21T05:51:41;19.80;99.90
53294;DHT22;39181;53.440;5.644;2022-07-21T05:54:07;19.80;99.90
53294;DHT22;39181;53.440;5.644;2022-07-21T05:56:32;19.80;99.90
53294;DHT22;39181;53.440;5.644;2022-07-21T05:58:58;19.90;99.90
53294;DHT22;39181;53.440;5.644;2022-07-21T06:01:23;19.90;99.90
53294;DHT22;39181;53.440;5.644;2022-07-21T06:03:50;19.90;99.90
53294;DHT22;39181;53.440;5.644;2022-07-21T06:06:18;19.90;99.90
53294;DHT22;39181;53.440;5.644;2022-07-21T06:08:45;19.90;99.90
53294;DHT22;39181;53.440;5.644;2022-07-21T06:11:13;19.80;99.90
53294;DHT22;39181;53.440;5.644;2022-07-21T06:13:40;19.90;99.90
53294;DHT22;39181;53.440;5.644;2022-07-21T06:16:06;19.90;99.90
53294;DHT22;39181;53.440;5.644;2022-07-21T06:18:32;19.90;99.90
53294;DHT22;39181;53.440;5.644;2022-07-21T06:20:58;19.80;99.90
53294;DHT22;39181;53.440;5.644;2022-07-21T06:23:24;19.80;99.90
53294;DHT22;39181;53.440;5.644;2022-07-21T06:25:53;19.80;99.90
53294;DHT22;39181;53.440;5.644;2022-07-21T06:28:19;19.80;99.90
53294;DHT22;39181;53.440;5.644;2022-07-21T06:30:45;19.80;99.90
53294;DHT22;39181;53.440;5.644;2022-07-21T06:33:11;19.80;99.90
53294;DHT22;39181;53.440;5.644;2022-07-21T06:35:37;19.90;99.90
53294;DHT22;39181;53.440;5.644;2022-07-21T06:38:03;19.90;99.90
53294;DHT22;39181;53.440;5.644;2022-07-21T06:40:29;19.90;99.90
53294;DHT22;39181;53.440;5.644;2022-07-21T06:42:55;20.00;99.90
53294;DHT22;39181;53.440;5.644;2022-07-21T06:45:21;20.00;99.90
53294;DHT22;39181;53.440;5.644;2022-07-21T06:47:47;20.00;99.90
53294;DHT22;39181;53.440;5.644;2022-07-21T06:50:13;20.00;99.90
53294;DHT22;39181;53.440;5.644;2022-07-21T06:52:39;20.00;99.90
53294;DHT22;39181;53.440;5.644;2022-07-21T06:55:06;20.00;99.90
53294;DHT22;39181;53.440;5.644;2022-07-21T06:57:33;20.10;99.90
53294;DHT22;39181;53.440;5.644;2022-07-21T06:59:59;20.10;99.90
53294;DHT22;39181;53.440;5.644;2022-07-21T07:02:25;20.00;99.90
53294;DHT22;39181;53.440;5.644;2022-07-21T07:04:50;20.10;99.90
53294;DHT22;39181;53.440;5.644;2022-07-21T07:07:16;20.10;99.90
53294;DHT22;39181;53.440;5.644;2022-07-21T07:09:41;20.10;99.90
53294;DHT22;39181;53.440;5.644;2022-07-21T07:12:07;20.20;99.90
53294;DHT22;39181;53.440;5.644;2022-07-21T07:14:35;20.20;99.90
53294;DHT22;39181;53.440;5.644;2022-07-21T07:17:02;20.20;99.90
53294;DHT22;39181;53.440;5.644;2022-07-21T07:19:29;20.10;99.90
53294;DHT22;39181;53.440;5.644;2022-07-21T07:21:57;20.20;99.90
53294;DHT22;39181;53.440;5.644;2022-07-21T07:24:23;20.10;99.90
53294;DHT22;39181;53.440;5.644;2022-07-21T07:26:48;20.20;99.90
53294;DHT22;39181;53.440;5.644;2022-07-21T07:29:14;20.20;99.90
53294;DHT22;39181;53.440;5.644;2022-07-21T07:31:40;20.20;99.90
53294;DHT22;39181;53.440;5.644;2022-07-21T07:34:09;20.20;99.90
53294;DHT22;39181;53.440;5.644;2022-07-21T07:36:35;20.20;99.90
53294;DHT22;39181;53.440;5.644;2022-07-21T07:39:02;20.30;99.90
53294;DHT22;39181;53.440;5.644;2022-07-21T07:41:28;20.20;99.90
53294;DHT22;39181;53.440;5.644;2022-07-21T07:43:54;20.20;99.90
53294;DHT22;39181;53.440;5.644;2022-07-21T07:46:20;20.20;99.90
53294;DHT22;39181;53.440;5.644;2022-07-21T07:48:45;20.10;99.90
53294;DHT22;39181;53.440;5.644;2022-07-21T07:51:13;20.10;99.90
53294;DHT22;39181;53.440;5.644;2022-07-21T07:53:40;20.00;99.90
53294;DHT22;39181;53.440;5.644;2022-07-21T07:56:06;20.00;99.90
53294;DHT22;39181;53.440;5.644;2022-07-21T07:58:32;20.00;99.90
53294;DHT22;39181;53.440;5.644;2022-07-21T08:00:58;20.00;99.90
53294;DHT22;39181;53.440;5.644;2022-07-21T08:03:25;20.00;99.90
53294;DHT22;39181;53.440;5.644;2022-07-21T08:05:52;19.90;99.90
53294;DHT22;39181;53.440;5.644;2022-07-21T08:08:18;19.90;99.90
53294;DHT22;39181;53.440;5.644;2022-07-21T08:10:45;19.90;99.90
53294;DHT22;39181;53.440;5.644;2022-07-21T08:13:18;19.90;99.90
53294;DHT22;39181;53.440;5.644;2022-07-21T08:15:45;19.90;99.90
53294;DHT22;39181;53.440;5.644;2022-07-21T08:18:11;19.90;99.90
53294;DHT22;39181;53.440;5.644;2022-07-21T08:20:37;19.90;99.90
53294;DHT22;39181;53.440;5.644;2022-07-21T08:23:03;19.90;99.90
53294;DHT22;39181;53.440;5.644;2022-07-21T08:25:29;19.90;99.90
53294;DHT22;39181;53.440;5.644;2022-07-21T08:27:55;19.90;99.90
53294;DHT22;39181;53.440;5.644;2022-07-21T08:30:20;19.80;99.90
53294;DHT22;39181;53.440;5.644;2022-07-21T08:32:46;19.80;99.90
53294;DHT22;39181;53.440;5.644;2022-07-21T08:35:11;19.80;99.90
53294;DHT22;39181;53.440;5.644;2022-07-21T08:37:38;19.90;99.90
53294;DHT22;39181;53.440;5.644;2022-07-21T08:40:06;19.80;99.90
53294;DHT22;39181;53.440;5.644;2022-07-21T08:42:32;19.80;99.90
53294;DHT22;39181;53.440;5.644;2022-07-21T08:44:58;19.70;99.90
53294;DHT22;39181;53.440;5.644;2022-07-21T08:47:27;19.70;99.90
53294;DHT22;39181;53.440;5.644;2022-07-21T08:49:57;19.80;99.90
53294;DHT22;39181;53.440;5.644;2022-07-21T08:52:22;19.80;99.90
53294;DHT22;39181;53.440;5.644;2022-07-21T08:54:48;19.80;99.90
53294;DHT22;39181;53.440;5.644;2022-07-21T08:57:14;19.80;99.90
53294;DHT22;39181;53.440;5.644;2022-07-21T08:59:39;19.70;99.90
53294;DHT22;39181;53.440;5.644;2022-07-21T09:02:05;19.70;99.90
53294;DHT22;39181;53.440;5.644;2022-07-21T09:04:33;19.80;99.90
53294;DHT22;39181;53.440;5.644;2022-07-21T09:07:04;19.70;99.90
53294;DHT22;39181;53.440;5.644;2022-07-21T09:09:31;19.80;99.90
53294;DHT22;39181;53.440;5.644;2022-07-21T09:11:57;19.80;99.90
53294;DHT22;39181;53.440;5.644;2022-07-21T09:14:26;19.90;99.90
53294;DHT22;39181;53.440;5.644;2022-07-21T09:16:55;19.80;99.90
53294;DHT22;39181;53.440;5.644;2022-07-21T09:19:26;19.80;99.90
53294;DHT22;39181;53.440;5.644;2022-07-21T09:21:56;19.80;99.90
53294;DHT22;39181;53.440;5.644;2022-07-21T09:24:25;19.80;99.90
53294;DHT22;39181;53.440;5.644;2022-07-21T09:29:37;19.70;99.90
53294;DHT22;39181;53.440;5.644;2022-07-21T09:32:13;19.70;99.90
53294;DHT22;39181;53.440;5.644;2022-07-21T09:34:39;19.70;99.90
53294;DHT22;39181;53.440;5.644;2022-07-21T09:37:06;19.70;99.90
53294;DHT22;39181;53.440;5.644;2022-07-21T09:40:07;19.70;99.90
53294;DHT22;39181;53.440;5.644;2022-07-21T09:42:41;19.80;99.90
53294;DHT22;39181;53.440;5.644;2022-07-21T09:45:13;19.80;99.90
53294;DHT22;39181;53.440;5.644;2022-07-21T09:47:40;19.90;99.90
53294;DHT22;39181;53.440;5.644;2022-07-21T09:50:08;19.90;99.90
53294;DHT22;39181;53.440;5.644;2022-07-21T09:52:42;20.00;99.90
53294;DHT22;39181;53.440;5.644;2022-07-21T09:55:10;20.00;99.90
53294;DHT22;39181;53.440;5.644;2022-07-21T09:57:36;20.00;99.90
53294;DHT22;39181;53.440;5.644;2022-07-21T10:00:04;19.90;99.90
53294;DHT22;39181;53.440;5.644;2022-07-21T10:02:31;19.90;99.90
53294;DHT22;39181;53.440;5.644;2022-07-21T10:05:00;19.90;99.90
53294;DHT22;39181;53.440;5.644;2022-07-21T10:07:28;20.00;99.90
53294;DHT22;39181;53.440;5.644;2022-07-21T10:09:54;20.10;99.90
53294;DHT22;39181;53.440;5.644;2022-07-21T10:12:21;20.00;99.90
53294;DHT22;39181;53.440;5.644;2022-07-21T10:14:47;20.10;99.90
53294;DHT22;39181;53.440;5.644;2022-07-21T10:17:14;20.10;99.90
53294;DHT22;39181;53.440;5.644;2022-07-21T10:25:28;20.00;99.90
53294;DHT22;39181;53.440;5.644;2022-07-21T10:28:14;20.00;99.90
53294;DHT22;39181;53.440;5.644;2022-07-21T10:30:46;20.00;99.90
53294;DHT22;39181;53.440;5.644;2022-07-21T10:33:14;20.00;99.90
53294;DHT22;39181;53.440;5.644;2022-07-21T10:35:50;20.00;99.90
53294;DHT22;39181;53.440;5.644;2022-07-21T10:38:30;20.00;99.90
53294;DHT22;39181;53.440;5.644;2022-07-21T10:40:57;20.00;99.90
53294;DHT22;39181;53.440;5.644;2022-07-21T10:45:49;20.10;99.90
53294;DHT22;39181;53.440;5.644;2022-07-21T10:51:09;20.20;99.90
53294;DHT22;39181;53.440;5.644;2022-07-21T10:53:36;20.20;99.90
53294;DHT22;39181;53.440;5.644;2022-07-21T10:56:03;20.30;99.90
53294;DHT22;39181;53.440;5.644;2022-07-21T10:58:30;20.30;99.90
53294;DHT22;39181;53.440;5.644;2022-07-21T11:01:07;20.30;99.90
53294;DHT22;39181;53.440;5.644;2022-07-21T11:03:44;20.40;99.90
53294;DHT22;39181;53.440;5.644;2022-07-21T11:06:24;20.40;99.90
53294;DHT22;39181;53.440;5.644;2022-07-21T11:08:51;20.40;99.90
53294;DHT22;39181;53.440;5.644;2022-07-21T11:11:25;20.40;99.90
53294;DHT22;39181;53.440;5.644;2022-07-21T11:14:01;20.40;99.90
53294;DHT22;39181;53.440;5.644;2022-07-21T11:19:41;20.40;99.90
53294;DHT22;39181;53.440;5.644;2022-07-21T11:24:36;20.40;99.90
53294;DHT22;39181;53.440;5.644;2022-07-21T11:27:10;20.40;99.90
53294;DHT22;39181;53.440;5.644;2022-07-21T11:29:38;20.40;99.90
53294;DHT22;39181;53.440;5.644;2022-07-21T11:32:04;20.50;99.90
53294;DHT22;39181;53.440;5.644;2022-07-21T11:37:03;20.50;99.90
53294;DHT22;39181;53.440;5.644;2022-07-21T11:39:28;20.50;99.90
53294;DHT22;39181;53.440;5.644;2022-07-21T11:41:54;20.50;99.90
53294;DHT22;39181;53.440;5.644;2022-07-21T11:44:25;20.50;99.90
53294;DHT22;39181;53.440;5.644;2022-07-21T11:46:54;20.50;99.90
53294;DHT22;39181;53.440;5.644;2022-07-21T11:49:20;20.60;99.90
53294;DHT22;39181;53.440;5.644;2022-07-21T11:51:55;20.60;99.90
53294;DHT22;39181;53.440;5.644;2022-07-21T11:56:49;20.70;99.90
53294;DHT22;39181;53.440;5.644;2022-07-21T11:59:15;20.70;99.90
53294;DHT22;39181;53.440;5.644;2022-07-21T12:01:48;20.70;99.90
53294;DHT22;39181;53.440;5.644;2022-07-21T12:04:14;20.70;99.90
53294;DHT22;39181;53.440;5.644;2022-07-21T12:06:40;20.80;99.90
53294;DHT22;39181;53.440;5.644;2022-07-21T12:09:06;20.70;99.90
53294;DHT22;39181;53.440;5.644;2022-07-21T12:11:35;20.70;99.90
53294;DHT22;39181;53.440;5.644;2022-07-21T12:14:01;20.60;99.90
53294;DHT22;39181;53.440;5.644;2022-07-21T12:16:28;20.60;99.90
53294;DHT22;39181;53.440;5.644;2022-07-21T12:19:11;20.60;99.90
53294;DHT22;39181;53.440;5.644;2022-07-21T12:21:49;20.90;99.90
53294;DHT22;39181;53.440;5.644;2022-07-21T12:24:19;20.70;99.90
53294;DHT22;39181;53.440;5.644;2022-07-21T12:26:45;20.70;99.90
53294;DHT22;39181;53.440;5.644;2022-07-21T12:29:25;20.80;99.90
53294;DHT22;39181;53.440;5.644;2022-07-21T12:31:51;20.90;99.90
53294;DHT22;39181;53.440;5.644;2022-07-21T12:34:16;21.00;99.90
53294;DHT22;39181;53.440;5.644;2022-07-21T12:36:44;21.00;99.90
53294;DHT22;39181;53.440;5.644;2022-07-21T12:39:19;21.10;99.90
53294;DHT22;39181;53.440;5.644;2022-07-21T12:42:09;21.10;99.90
53294;DHT22;39181;53.440;5.644;2022-07-21T12:44:36;21.10;99.90
53294;DHT22;39181;53.440;5.644;2022-07-21T12:47:19;21.10;99.90
53294;DHT22;39181;53.440;5.644;2022-07-21T12:50:03;21.20;99.90
53294;DHT22;39181;53.440;5.644;2022-07-21T12:52:29;21.30;99.90
53294;DHT22;39181;53.440;5.644;2022-07-21T12:54:58;21.40;99.90
53294;DHT22;39181;53.440;5.644;2022-07-21T12:57:29;21.40;99.90
53294;DHT22;39181;53.440;5.644;2022-07-21T12:59:56;21.40;99.90
53294;DHT22;39181;53.440;5.644;2022-07-21T13:02:23;21.40;99.90
53294;DHT22;39181;53.440;5.644;2022-07-21T13:04:49;21.50;99.90
53294;DHT22;39181;53.440;5.644;2022-07-21T13:07:15;21.50;99.90
53294;DHT22;39181;53.440;5.644;2022-07-21T13:09:40;21.50;99.90
53294;DHT22;39181;53.440;5.644;2022-07-21T13:12:06;21.40;99.90
53294;DHT22;39181;53.440;5.644;2022-07-21T13:14:32;21.40;99.90
53294;DHT22;39181;53.440;5.644;2022-07-21T13:16:59;21.30;99.90
53294;DHT22;39181;53.440;5.644;2022-07-21T13:19:24;21.20;99.90
53294;DHT22;39181;53.440;5.644;2022-07-21T13:21:51;21.00;99.90
53294;DHT22;39181;53.440;5.644;2022-07-21T13:24:17;21.00;99.90
53294;DHT22;39181;53.440;5.644;2022-07-21T13:26:43;21.00;99.90
53294;DHT22;39181;53.440;5.644;2022-07-21T13:29:09;21.00;99.90
53294;DHT22;39181;53.440;5.644;2022-07-21T13:31:35;20.80;99.90
53294;DHT22;39181;53.440;5.644;2022-07-21T13:34:04;20.80;99.90
53294;DHT22;39181;53.440;5.644;2022-07-21T13:36:33;20.80;99.90
53294;DHT22;39181;53.440;5.644;2022-07-21T13:38:58;20.70;99.90
53294;DHT22;39181;53.440;5.644;2022-07-21T13:41:24;20.40;99.90
53294;DHT22;39181;53.440;5.644;2022-07-21T13:43:51;20.20;99.90
53294;DHT22;39181;53.440;5.644;2022-07-21T13:46:17;20.00;99.90
53294;DHT22;39181;53.440;5.644;2022-07-21T13:48:43;19.90;99.90
53294;DHT22;39181;53.440;5.644;2022-07-21T13:51:14;19.70;99.90
53294;DHT22;39181;53.440;5.644;2022-07-21T13:53:41;19.70;99.90
53294;DHT22;39181;53.440;5.644;2022-07-21T13:56:07;19.60;99.90
53294;DHT22;39181;53.440;5.644;2022-07-21T13:58:33;19.60;99.90
53294;DHT22;39181;53.440;5.644;2022-07-21T14:00:59;19.60;99.90
53294;DHT22;39181;53.440;5.644;2022-07-21T14:03:25;19.50;99.90
53294;DHT22;39181;53.440;5.644;2022-07-21T14:05:51;19.40;99.90
53294;DHT22;39181;53.440;5.644;2022-07-21T14:08:16;19.30;99.90
53294;DHT22;39181;53.440;5.644;2022-07-21T14:10:42;19.30;99.90
53294;DHT22;39181;53.440;5.644;2022-07-21T14:13:08;19.20;99.90
53294;DHT22;39181;53.440;5.644;2022-07-21T14:15:33;19.20;99.90
53294;DHT22;39181;53.440;5.644;2022-07-21T14:17:59;19.20;99.90
53294;DHT22;39181;53.440;5.644;2022-07-21T14:20:25;19.20;99.90
53294;DHT22;39181;53.440;5.644;2022-07-21T14:22:50;19.00;99.90
53294;DHT22;39181;53.440;5.644;2022-07-21T14:25:16;18.90;99.90
53294;DHT22;39181;53.440;5.644;2022-07-21T14:27:46;18.90;99.90
53294;DHT22;39181;53.440;5.644;2022-07-21T14:30:12;18.80;99.90
53294;DHT22;39181;53.440;5.644;2022-07-21T14:32:38;18.80;99.90
53294;DHT22;39181;53.440;5.644;2022-07-21T14:35:03;18.70;99.90
53294;DHT22;39181;53.440;5.644;2022-07-21T14:37:29;18.60;99.90
53294;DHT22;39181;53.440;5.644;2022-07-21T14:39:55;18.50;99.90
53294;DHT22;39181;53.440;5.644;2022-07-21T14:42:20;18.40;99.90
53294;DHT22;39181;53.440;5.644;2022-07-21T14:44:49;18.40;99.90
53294;DHT22;39181;53.440;5.644;2022-07-21T14:47:14;18.40;99.90
53294;DHT22;39181;53.440;5.644;2022-07-21T14:49:40;18.30;99.90
53294;DHT22;39181;53.440;5.644;2022-07-21T14:52:06;18.20;99.90
53294;DHT22;39181;53.440;5.644;2022-07-21T14:54:32;18.20;99.90
53294;DHT22;39181;53.440;5.644;2022-07-21T14:56:58;18.20;99.90
53294;DHT22;39181;53.440;5.644;2022-07-21T14:59:23;18.30;99.90
53294;DHT22;39181;53.440;5.644;2022-07-21T15:01:49;18.20;99.90
53294;DHT22;39181;53.440;5.644;2022-07-21T15:04:14;18.10;99.90
53294;DHT22;39181;53.440;5.644;2022-07-21T15:06:40;18.10;99.90
53294;DHT22;39181;53.440;5.644;2022-07-21T15:09:06;18.10;99.90
53294;DHT22;39181;53.440;5.644;2022-07-21T15:11:31;18.10;99.90
53294;DHT22;39181;53.440;5.644;2022-07-21T15:13:57;18.00;99.90
53294;DHT22;39181;53.440;5.644;2022-07-21T15:16:22;18.00;99.90
53294;DHT22;39181;53.440;5.644;2022-07-21T15:18:48;18.00;99.90
53294;DHT22;39181;53.440;5.644;2022-07-21T15:21:13;18.00;99.90
53294;DHT22;39181;53.440;5.644;2022-07-21T15:23:39;17.90;99.90
53294;DHT22;39181;53.440;5.644;2022-07-21T15:26:05;17.90;99.90
53294;DHT22;39181;53.440;5.644;2022-07-21T15:28:30;17.90;99.90
53294;DHT22;39181;53.440;5.644;2022-07-21T15:30:56;17.90;99.90
53294;DHT22;39181;53.440;5.644;2022-07-21T15:33:21;17.90;99.90
53294;DHT22;39181;53.440;5.644;2022-07-21T15:35:47;18.00;99.90
53294;DHT22;39181;53.440;5.644;2022-07-21T15:38:16;18.00;99.90
53294;DHT22;39181;53.440;5.644;2022-07-21T15:40:42;18.00;99.90
53294;DHT22;39181;53.440;5.644;2022-07-21T15:43:07;18.00;99.90
53294;DHT22;39181;53.440;5.644;2022-07-21T15:45:33;17.80;99.90
53294;DHT22;39181;53.440;5.644;2022-07-21T15:47:59;17.90;99.90
53294;DHT22;39181;53.440;5.644;2022-07-21T15:50:26;17.70;99.90
53294;DHT22;39181;53.440;5.644;2022-07-21T15:52:52;17.90;99.90